createdAt,value
2023-05-04T00:02:20.493Z,102395.66
2023-05-04T00:04:53.651Z,102281.09
2023-05-04T00:07:22.152Z,102394.84
2023-05-04T00:09:51.458Z,102382.59
2023-05-04T00:12:22.566Z,102392.72
2023-05-04T00:14:53.132Z,102397.41
2023-05-04T00:17:21.362Z,102380.38
2023-05-04T00:19:54.617Z,102392.16
2023-05-04T00:22:33.818Z,102391.22
2023-05-04T00:25:05.244Z,102388.34
2023-05-04T00:27:38.027Z,102385.91
2023-05-04T00:30:09.872Z,102376.84
2023-05-04T00:32:41.052Z,102376.31
2023-05-04T00:35:10.889Z,102376.00
2023-05-04T00:37:39.180Z,102376.13
2023-05-04T00:40:09.927Z,102341.97
2023-05-04T00:42:44.038Z,102370.38
2023-05-04T00:45:13.718Z,102361.75
2023-05-04T00:47:50.259Z,102360.16
2023-05-04T00:50:23.172Z,102358.91
2023-05-04T00:52:54.113Z,102360.38
2023-05-04T00:55:25.140Z,102366.13
2023-05-04T00:57:54.339Z,102336.16
2023-05-04T01:00:25.828Z,102355.94
2023-05-04T01:02:55.938Z,102294.97
2023-05-04T01:05:32.050Z,102335.81
2023-05-04T01:08:09.643Z,102328.38
2023-05-04T01:10:49.382Z,102350.72
2023-05-04T01:13:21.336Z,102347.84
2023-05-04T01:15:51.420Z,102299.31
2023-05-04T01:18:26.561Z,102333.50
2023-05-04T01:20:54.792Z,102346.03
2023-05-04T01:23:26.594Z,102330.84
2023-05-04T01:26:03.896Z,102331.16
2023-05-04T01:28:41.648Z,102332.53
2023-05-04T01:31:17.128Z,102314.56
2023-05-04T01:33:48.786Z,102342.66
2023-05-04T01:36:23.868Z,102323.91
2023-05-04T01:38:56.904Z,102315.41
2023-05-04T01:41:25.161Z,102322.31
2023-05-04T01:43:54.245Z,102336.25
2023-05-04T01:46:28.534Z,102338.72
2023-05-04T01:48:56.861Z,102338.91
2023-05-04T01:51:25.085Z,102332.00
2023-05-04T01:53:53.292Z,102336.59
2023-05-04T01:56:24.346Z,102342.31
2023-05-04T01:58:58.938Z,102317.41
2023-05-04T02:01:28.681Z,102336.63
2023-05-04T02:04:03.387Z,102336.00
2023-05-04T02:06:36.234Z,102328.25
2023-05-04T02:09:06.421Z,102319.59
2023-05-04T02:11:37.345Z,102326.00
2023-05-04T02:14:05.670Z,102294.84
2023-05-04T02:16:36.018Z,102321.94
2023-05-04T02:19:13.010Z,102319.72
2023-05-04T02:21:43.825Z,102313.03
2023-05-04T02:24:13.698Z,102312.25
2023-05-04T02:26:43.260Z,102313.50
2023-05-04T02:29:11.440Z,102313.31
2023-05-04T02:31:40.612Z,102292.03
2023-05-04T02:34:08.960Z,102299.50
2023-05-04T02:36:42.625Z,102306.50
2023-05-04T02:39:10.812Z,102313.84
2023-05-04T02:41:38.983Z,102313.72
2023-05-04T02:44:13.655Z,102305.22
2023-05-04T02:46:41.786Z,102274.78
2023-05-04T02:49:19.293Z,102303.53
2023-05-04T02:51:47.792Z,102300.31
2023-05-04T02:54:15.984Z,102277.91
2023-05-04T02:56:46.647Z,102278.31
2023-05-04T02:59:18.171Z,102301.69
2023-05-04T03:01:46.516Z,102300.81
2023-05-04T03:04:14.807Z,102260.53
2023-05-04T03:06:42.963Z,102299.44
2023-05-04T03:09:11.379Z,102274.34
2023-05-04T03:11:39.502Z,102296.78
2023-05-04T03:14:15.064Z,102289.47
2023-05-04T03:16:51.529Z,102283.28
2023-05-04T03:19:22.223Z,102280.84
2023-05-04T03:21:58.236Z,102229.28
2023-05-04T03:24:26.838Z,102286.91
2023-05-04T03:26:55.213Z,102281.03
2023-05-04T03:29:32.266Z,102279.03
2023-05-04T03:32:10.482Z,102264.78
2023-05-04T03:34:38.729Z,102276.59
2023-05-04T03:37:08.044Z,102270.22
2023-05-04T03:39:38.897Z,102281.25
2023-05-04T03:42:11.427Z,102273.00
2023-05-04T03:44:45.300Z,102271.59
2023-05-04T03:47:18.679Z,102270.53
2023-05-04T03:49:49.816Z,102265.22
2023-05-04T03:52:26.574Z,102243.09
2023-05-04T03:54:54.799Z,102238.13
2023-05-04T03:57:24.266Z,102246.22
2023-05-04T03:59:59.016Z,102267.88
2023-05-04T04:02:31.737Z,102261.63
2023-05-04T04:05:03.068Z,102229.22
2023-05-04T04:07:33.131Z,102245.25
2023-05-04T04:10:04.809Z,102260.03
2023-05-04T04:12:33.262Z,102262.97
2023-05-04T04:15:03.088Z,102252.91
2023-05-04T04:17:31.490Z,102245.66
2023-05-04T04:19:59.748Z,102257.38
2023-05-04T04:22:27.957Z,102252.91
2023-05-04T04:25:01.498Z,102250.25
2023-05-04T04:27:32.717Z,102249.94
2023-05-04T04:30:02.713Z,102255.16
2023-05-04T04:32:31.510Z,102210.19
2023-05-04T04:35:02.683Z,102255.16
2023-05-04T04:37:48.945Z,102248.16
2023-05-04T04:40:17.690Z,102240.91
2023-05-04T04:42:51.291Z,102223.69
2023-05-04T04:45:24.100Z,102248.59
2023-05-04T04:47:56.669Z,102245.41
2023-05-04T04:50:29.842Z,102241.63
2023-05-04T04:53:00.988Z,102250.13
2023-05-04T04:55:31.939Z,102249.88
2023-05-04T04:58:00.346Z,102247.78
2023-05-04T05:00:32.940Z,102234.50
2023-05-04T05:03:04.585Z,102245.25
2023-05-04T05:05:40.967Z,102237.28
2023-05-04T05:08:09.163Z,102230.56
2023-05-04T05:10:37.458Z,102250.22
2023-05-04T05:13:05.883Z,102252.97
2023-05-04T05:15:35.489Z,102227.78
2023-05-04T05:18:05.254Z,102258.13
2023-05-04T05:20:35.054Z,102254.59
2023-05-04T05:23:08.030Z,102255.28
2023-05-04T05:25:37.143Z,102250.81
2023-05-04T05:28:07.593Z,102242.78
2023-05-04T05:30:40.682Z,102213.38
2023-05-04T05:33:11.751Z,102203.72
2023-05-04T05:35:43.480Z,102233.59
2023-05-04T05:38:16.146Z,102227.22
2023-05-04T05:40:52.277Z,102224.56
2023-05-04T05:43:21.902Z,102210.50
2023-05-04T05:45:51.450Z,102199.75
2023-05-04T05:48:20.056Z,102214.19
2023-05-04T05:50:48.608Z,102217.22
2023-05-04T05:53:16.920Z,102218.47
2023-05-04T05:55:45.097Z,102224.75
2023-05-04T05:58:16.898Z,102227.81
2023-05-04T06:00:48.354Z,102233.50
2023-05-04T06:03:19.410Z,102221.97
2023-05-04T06:05:47.736Z,102206.56
2023-05-04T06:08:15.901Z,102223.38
2023-05-04T06:10:44.152Z,102210.88
2023-05-04T06:13:12.309Z,102225.88
2023-05-04T06:15:42.478Z,102215.66
2023-05-04T06:18:17.822Z,102214.63
2023-05-04T06:20:50.115Z,102213.06
2023-05-04T06:23:18.470Z,102216.56
2023-05-04T06:25:46.696Z,102191.44
2023-05-04T06:28:15.037Z,102202.72
2023-05-04T06:30:46.071Z,102202.41
2023-05-04T06:33:14.268Z,102197.38
2023-05-04T06:35:42.824Z,102197.84
2023-05-04T06:38:12.563Z,102166.16
2023-05-04T06:40:44.881Z,102190.16
2023-05-04T06:43:30.101Z,102162.44
2023-05-04T06:46:03.605Z,102186.31
2023-05-04T06:48:35.272Z,102181.03
2023-05-04T06:51:03.567Z,102183.47
2023-05-04T06:53:36.156Z,102175.72
2023-05-04T06:56:04.374Z,102182.50
2023-05-04T06:58:32.625Z,102181.09
2023-05-04T07:01:03.807Z,102183.06
2023-05-04T07:03:32.616Z,102180.19
2023-05-04T07:06:00.914Z,102174.06
2023-05-04T07:08:29.171Z,102171.16
2023-05-04T07:11:13.014Z,102145.59
2023-05-04T07:13:46.019Z,102170.69
2023-05-04T07:16:15.284Z,102167.72
2023-05-04T07:18:44.833Z,102166.72
2023-05-04T07:21:26.851Z,102133.28
2023-05-04T07:24:00.143Z,102167.53
2023-05-04T07:26:29.745Z,102160.91
2023-05-04T07:28:59.319Z,102168.94
2023-05-04T07:31:30.071Z,102155.88
2023-05-04T07:33:58.765Z,102157.94
2023-05-04T07:36:29.172Z,102163.53
2023-05-04T07:39:00.420Z,102165.78
2023-05-04T07:41:30.376Z,102163.03
2023-05-04T07:43:58.638Z,102152.31
2023-05-04T07:46:27.032Z,102149.78
2023-05-04T07:48:57.114Z,102146.66
2023-05-04T07:51:32.038Z,102141.47
2023-05-04T07:54:06.145Z,102134.28
2023-05-04T07:56:36.718Z,102121.66
2023-05-04T07:59:05.003Z,102134.44
2023-05-04T08:01:33.286Z,102135.69
2023-05-04T08:04:01.472Z,102127.63
2023-05-04T08:06:37.300Z,102118.78
2023-05-04T08:09:05.516Z,102120.25
2023-05-04T08:11:37.611Z,102109.25
2023-05-04T08:14:08.203Z,102080.53
2023-05-04T08:16:36.792Z,102100.06
2023-05-04T08:19:07.701Z,102075.50
2023-05-04T08:21:35.892Z,102111.91
2023-05-04T08:24:04.389Z,102110.22
2023-05-04T08:26:32.600Z,102111.28
2023-05-04T08:29:10.594Z,102101.13
2023-05-04T08:31:41.203Z,102084.00
2023-05-04T08:34:09.426Z,102060.88
2023-05-04T08:36:42.152Z,102089.16
2023-05-04T08:39:13.326Z,102066.81
2023-05-04T08:41:42.002Z,102061.59
2023-05-04T08:44:12.959Z,102054.09
2023-05-04T08:46:42.377Z,102056.25
2023-05-04T08:49:13.396Z,102074.91
2023-05-04T08:51:46.689Z,102064.88
2023-05-04T08:54:15.443Z,102047.28
2023-05-04T08:56:46.559Z,102065.09
2023-05-04T08:59:31.635Z,102039.38
2023-05-04T09:02:02.163Z,102051.25
2023-05-04T09:04:32.167Z,102054.81
2023-05-04T09:07:03.621Z,102048.56
2023-05-04T09:09:32.383Z,102056.03
2023-05-04T09:12:02.659Z,102052.28
2023-05-04T09:14:41.872Z,102055.78
2023-05-04T09:17:25.929Z,102024.81
2023-05-04T09:20:01.495Z,102035.84
2023-05-04T09:22:30.912Z,102034.72
2023-05-04T09:25:11.697Z,102031.91
2023-05-04T09:27:41.779Z,102044.38
2023-05-04T09:30:14.648Z,102044.72
2023-05-04T09:32:47.321Z,102045.72
2023-05-04T09:35:32.022Z,102028.69
2023-05-04T09:38:01.538Z,102047.03
2023-05-04T09:40:33.896Z,102026.84
2023-05-04T09:43:02.621Z,102013.84
2023-05-04T09:45:42.817Z,102021.66
2023-05-04T09:48:21.870Z,102031.97
2023-05-04T09:50:54.944Z,102025.50
2023-05-04T09:53:25.209Z,102007.69
2023-05-04T09:56:12.561Z,101999.50
2023-05-04T09:58:41.328Z,101983.59
2023-05-04T10:01:11.645Z,101980.41
2023-05-04T10:03:41.138Z,101997.59
2023-05-04T10:06:13.058Z,101978.47
2023-05-04T10:08:42.153Z,101979.13
2023-05-04T10:11:10.558Z,101979.59
2023-05-04T10:13:38.900Z,101978.09
2023-05-04T10:16:34.749Z,101923.72
2023-05-04T10:19:44.993Z,101934.22
2023-05-04T10:22:28.670Z,101964.13
2023-05-04T10:25:34.769Z,101933.34
2023-05-04T10:28:14.392Z,101951.59
2023-05-04T10:30:42.709Z,101928.75
2023-05-04T10:33:13.293Z,101940.41
2023-05-04T10:35:53.093Z,101927.97
2023-05-04T10:38:33.539Z,101918.38
2023-05-04T10:41:04.637Z,101921.00
2023-05-04T10:43:33.322Z,101916.13
2023-05-04T10:46:02.460Z,101900.44
2023-05-04T10:48:39.750Z,101905.28
2023-05-04T10:51:19.832Z,101875.44
2023-05-04T10:53:49.758Z,101899.72
2023-05-04T10:56:26.719Z,101870.78
2023-05-04T10:58:55.909Z,101871.34
2023-05-04T11:01:24.357Z,101882.88
2023-05-04T11:03:55.325Z,101868.84
2023-05-04T11:06:25.393Z,101882.00
2023-05-04T11:09:06.311Z,101887.47
2023-05-04T11:11:42.151Z,101869.19
2023-05-04T11:14:11.515Z,101850.13
2023-05-04T11:16:39.967Z,101863.69
2023-05-04T11:19:12.616Z,101871.69
2023-05-04T11:21:49.372Z,101867.03
2023-05-04T11:24:21.165Z,101859.16
2023-05-04T11:26:52.699Z,101814.59
2023-05-04T11:29:22.793Z,101848.72
2023-05-04T11:31:57.279Z,101830.97
2023-05-04T11:34:29.344Z,101843.91
2023-05-04T11:36:57.632Z,101830.50
2023-05-04T11:39:32.666Z,101835.50
2023-05-04T11:42:03.089Z,101833.69
2023-05-04T11:44:31.463Z,101819.81
2023-05-04T11:46:59.696Z,101830.84
2023-05-04T11:49:31.140Z,101784.19
2023-05-04T11:52:07.908Z,101786.50
2023-05-04T11:54:36.985Z,101761.59
2023-05-04T11:57:05.794Z,101814.16
2023-05-04T11:59:34.015Z,101805.69
2023-05-04T12:02:07.108Z,101776.19
2023-05-04T12:04:37.997Z,101794.44
2023-05-04T12:07:08.893Z,101794.75
2023-05-04T12:09:46.413Z,101777.81
2023-05-04T12:12:16.108Z,101789.47
2023-05-04T12:14:55.312Z,101759.88
2023-05-04T12:17:24.216Z,101776.72
2023-05-04T12:19:56.035Z,101749.94
2023-05-04T12:22:32.901Z,101770.31
2023-05-04T12:25:05.105Z,101765.50
2023-05-04T12:27:35.250Z,101740.50
2023-05-04T12:30:03.477Z,101755.34
2023-05-04T12:32:33.819Z,101697.63
2023-05-04T12:35:04.335Z,101752.69
2023-05-04T12:37:32.738Z,101751.34
2023-05-04T12:40:01.067Z,101716.63
2023-05-04T12:42:29.761Z,101735.72
2023-05-04T12:45:00.616Z,101728.72
2023-05-04T12:47:28.931Z,101711.31
2023-05-04T12:50:05.271Z,101710.50
2023-05-04T12:52:34.765Z,101708.91
2023-05-04T12:55:06.096Z,101677.50
2023-05-04T12:57:34.838Z,101696.88
2023-05-04T13:00:04.412Z,101663.22
2023-05-04T13:02:33.063Z,101695.69
2023-05-04T13:05:01.552Z,101690.53
2023-05-04T13:07:29.777Z,101648.34
2023-05-04T13:10:00.146Z,101696.16
2023-05-04T13:12:28.476Z,101669.97
2023-05-04T13:14:58.111Z,101687.75
2023-05-04T13:17:26.787Z,101677.59
2023-05-04T13:19:54.979Z,101668.59
2023-05-04T13:22:23.229Z,101655.09
2023-05-04T13:24:51.385Z,101648.47
2023-05-04T13:27:20.939Z,101632.75
2023-05-04T13:29:49.118Z,101652.06
2023-05-04T13:32:17.435Z,101636.38
2023-05-04T13:34:45.727Z,101636.66
2023-05-04T13:37:18.430Z,101641.34
2023-05-04T13:39:46.987Z,101618.75
2023-05-04T13:42:15.486Z,101627.00
2023-05-04T13:44:45.758Z,101630.84
2023-05-04T13:47:16.589Z,101629.19
2023-05-04T13:49:44.908Z,101622.25
2023-05-04T13:52:13.610Z,101589.19
2023-05-04T13:54:42.349Z,101618.38
2023-05-04T13:57:10.560Z,101627.97
2023-05-04T13:59:38.673Z,101613.50
2023-05-04T14:02:08.989Z,101604.22
2023-05-04T14:04:39.343Z,101603.81
2023-05-04T14:07:09.176Z,101617.66
2023-05-04T14:09:37.674Z,101611.03
2023-05-04T14:12:06.790Z,101598.31
2023-05-04T14:14:35.109Z,101585.28
2023-05-04T14:17:03.363Z,101608.06
2023-05-04T14:19:32.937Z,101605.91
2023-05-04T14:22:02.675Z,101602.03
2023-05-04T14:24:31.655Z,101580.59
2023-05-04T14:26:59.819Z,101602.72
2023-05-04T14:29:28.458Z,101586.28
2023-05-04T14:31:56.776Z,101589.91
2023-05-04T14:34:27.377Z,101580.59
2023-05-04T14:36:57.129Z,101569.59
2023-05-04T14:39:27.645Z,101571.25
2023-05-04T14:41:57.147Z,101562.13
2023-05-04T14:44:27.214Z,101564.91
2023-05-04T14:46:56.413Z,101542.59
2023-05-04T14:49:35.940Z,101566.53
2023-05-04T14:52:07.614Z,101552.22
2023-05-04T14:54:36.002Z,101544.53
2023-05-04T14:57:04.649Z,101539.28
2023-05-04T14:59:32.774Z,101536.28
2023-05-04T15:02:01.071Z,101530.19
2023-05-04T15:04:29.327Z,101531.28
2023-05-04T15:06:57.827Z,101527.75
2023-05-04T15:09:27.576Z,101509.59
2023-05-04T15:11:55.819Z,101521.97
2023-05-04T15:14:28.353Z,101531.31
2023-05-04T15:16:56.581Z,101513.94
2023-05-04T15:19:30.780Z,101513.66
2023-05-04T15:21:59.475Z,101513.66
2023-05-04T15:24:29.091Z,101493.84
2023-05-04T15:27:01.684Z,101512.84
2023-05-04T15:29:34.853Z,101485.59
2023-05-04T15:32:05.650Z,101491.09
2023-05-04T15:34:36.821Z,101505.66
2023-05-04T15:37:06.855Z,101507.31
2023-05-04T15:39:36.561Z,101491.53
2023-05-04T15:42:07.553Z,101509.69
2023-05-04T15:44:41.012Z,101514.63
2023-05-04T15:47:13.385Z,101504.44
2023-05-04T15:49:44.856Z,101504.69
2023-05-04T15:52:13.028Z,101502.81
2023-05-04T15:54:42.548Z,101480.28
2023-05-04T15:57:16.136Z,101497.72
2023-05-04T15:59:44.316Z,101499.38
2023-05-04T16:02:12.509Z,101478.19
2023-05-04T16:04:40.842Z,101495.28
2023-05-04T16:07:10.926Z,101464.72
2023-05-04T16:09:39.200Z,101490.88
2023-05-04T16:12:14.241Z,101483.44
2023-05-04T16:14:42.706Z,101477.63
2023-05-04T16:17:13.681Z,101474.56
2023-05-04T16:19:41.833Z,101451.88
2023-05-04T16:22:19.239Z,101470.50
2023-05-04T16:24:47.670Z,101479.97
2023-05-04T16:27:26.852Z,101466.22
2023-05-04T16:30:00.045Z,101469.88
2023-05-04T16:32:31.075Z,101475.66
2023-05-04T16:35:00.799Z,101455.28
2023-05-04T16:37:29.136Z,101472.63
2023-05-04T16:39:57.452Z,101472.16
2023-05-04T16:42:27.282Z,101453.59
2023-05-04T16:44:58.252Z,101474.25
2023-05-04T16:47:26.588Z,101458.25
2023-05-04T16:49:54.771Z,101460.66
2023-05-04T16:52:25.502Z,101475.16
2023-05-04T16:54:53.860Z,101465.72
2023-05-04T16:57:24.271Z,101409.31
2023-05-04T16:59:57.009Z,101464.72
2023-05-04T17:02:25.817Z,101468.03
2023-05-04T17:04:57.485Z,101440.94
2023-05-04T17:07:31.407Z,101458.28
2023-05-04T17:10:02.754Z,101462.91
2023-05-04T17:12:31.532Z,101452.22
2023-05-04T17:15:06.988Z,101465.50
2023-05-04T17:17:35.335Z,101420.09
2023-05-04T17:20:03.680Z,101452.94
2023-05-04T17:22:31.916Z,101457.13
2023-05-04T17:25:00.183Z,101449.44
2023-05-04T17:27:31.652Z,101453.41
2023-05-04T17:30:01.268Z,101460.13
2023-05-04T17:32:32.095Z,101425.06
2023-05-04T17:35:15.888Z,101456.81
2023-05-04T17:37:51.453Z,101451.41
2023-05-04T17:40:19.825Z,101432.34
2023-05-04T17:42:49.081Z,101450.09
2023-05-04T17:45:21.550Z,101457.97
2023-05-04T17:47:55.159Z,101453.41
2023-05-04T17:50:24.675Z,101439.00
2023-05-04T17:52:55.252Z,101462.91
2023-05-04T17:55:24.898Z,101465.91
2023-05-04T17:57:54.533Z,101438.69
2023-05-04T18:00:27.952Z,101446.41
2023-05-04T18:02:56.375Z,101460.06
2023-05-04T18:05:27.909Z,101463.91
2023-05-04T18:08:12.079Z,101455.00
2023-05-04T18:10:41.285Z,101439.75
2023-05-04T18:13:09.516Z,101454.97
2023-05-04T18:15:44.408Z,101456.16
2023-05-04T18:18:28.198Z,101461.03
2023-05-04T18:21:01.293Z,101466.13
2023-05-04T18:23:32.287Z,101469.69
2023-05-04T18:26:03.605Z,101443.91
2023-05-04T18:28:35.783Z,101435.81
2023-05-04T18:31:05.768Z,101470.06
2023-05-04T18:33:40.617Z,101474.09
2023-05-04T18:36:09.305Z,101437.31
2023-05-04T18:38:41.018Z,101455.88
2023-05-04T18:41:10.503Z,101465.53
2023-05-04T18:43:46.034Z,101447.66
2023-05-04T18:46:18.796Z,101472.00
2023-05-04T18:48:52.705Z,101478.06
2023-05-04T18:51:30.755Z,101473.31
2023-05-04T18:53:58.995Z,101460.63
2023-05-04T18:56:30.033Z,101457.84
2023-05-04T18:58:58.193Z,101425.06
2023-05-04T19:01:29.080Z,101473.44
2023-05-04T19:04:06.466Z,101454.38
2023-05-04T19:06:35.665Z,101467.84
2023-05-04T19:09:08.150Z,101480.81
2023-05-04T19:11:36.669Z,101489.06
2023-05-04T19:14:04.808Z,101476.19
2023-05-04T19:16:34.369Z,101473.31
2023-05-04T19:19:02.559Z,101480.22
2023-05-04T19:21:30.891Z,101484.03
2023-05-04T19:23:59.001Z,101488.66
2023-05-04T19:26:27.376Z,101484.28
2023-05-04T19:28:55.650Z,101464.47
2023-05-04T19:31:23.991Z,101479.69
2023-05-04T19:33:53.761Z,101444.00
2023-05-04T19:36:21.903Z,101459.84
2023-05-04T19:38:50.129Z,101490.47
2023-05-04T19:41:18.819Z,101489.22
2023-05-04T19:43:46.968Z,101484.00
2023-05-04T19:46:15.253Z,101486.47
2023-05-04T19:48:43.721Z,101485.44
2023-05-04T19:51:14.053Z,101483.78
2023-05-04T19:53:42.261Z,101486.66
2023-05-04T19:56:10.405Z,101477.09
2023-05-04T19:58:38.659Z,101483.34
2023-05-04T20:01:06.912Z,101491.91
2023-05-04T20:03:35.483Z,101501.06
2023-05-04T20:06:04.518Z,101501.69
2023-05-04T20:08:34.170Z,101498.34
2023-05-04T20:11:02.372Z,101502.28
2023-05-04T20:13:30.611Z,101475.50
2023-05-04T20:15:58.753Z,101494.91
2023-05-04T20:18:26.911Z,101493.00
2023-05-04T20:20:55.090Z,101464.19
2023-05-04T20:23:23.690Z,101503.16
2023-05-04T20:25:53.641Z,101500.00
2023-05-04T20:28:23.076Z,101498.53
2023-05-04T20:30:51.277Z,101490.16
2023-05-04T20:33:25.428Z,101492.59
2023-05-04T20:35:53.602Z,101471.47
2023-05-04T20:38:21.762Z,101490.63
2023-05-04T20:40:52.015Z,101491.19
2023-05-04T20:43:25.455Z,101467.47
2023-05-04T20:45:53.608Z,101483.44
2023-05-04T20:48:21.860Z,101481.84
2023-05-04T20:50:51.548Z,101444.84
2023-05-04T20:53:21.415Z,101471.09
2023-05-04T20:55:49.610Z,101478.69
2023-05-04T20:58:20.215Z,101440.25
2023-05-04T21:00:51.746Z,101473.69
2023-05-04T21:03:20.172Z,101474.41
2023-05-04T21:05:48.654Z,101472.47
2023-05-04T21:08:16.818Z,101472.22
2023-05-04T21:10:44.989Z,101473.09
2023-05-04T21:13:13.269Z,101448.59
2023-05-04T21:15:44.814Z,101464.44
2023-05-04T21:18:14.610Z,101464.94
2023-05-04T21:20:42.830Z,101453.00
2023-05-04T21:23:11.985Z,101392.56
2023-05-04T21:25:40.271Z,101461.03
2023-05-04T21:28:08.532Z,101445.31
2023-05-04T21:30:41.325Z,101454.97
2023-05-04T21:33:09.504Z,101455.16
2023-05-04T21:35:41.283Z,101453.59
2023-05-04T21:38:09.541Z,101458.38
2023-05-04T21:40:37.677Z,101386.56
2023-05-04T21:43:05.912Z,101452.56
2023-05-04T21:45:34.432Z,101451.25
2023-05-04T21:48:03.761Z,101462.31
2023-05-04T21:50:32.023Z,101421.59
2023-05-04T21:53:01.634Z,101437.75
2023-05-04T21:55:30.681Z,101460.53
2023-05-04T21:57:58.935Z,101452.75
2023-05-04T22:00:27.698Z,101455.28
2023-05-04T22:02:56.099Z,101453.94
2023-05-04T22:05:24.851Z,101461.53
2023-05-04T22:07:53.120Z,101453.19
2023-05-04T22:10:23.376Z,101452.31
2023-05-04T22:12:53.513Z,101457.50
2023-05-04T22:15:29.629Z,101458.03
2023-05-04T22:18:07.605Z,101462.03
2023-05-04T22:20:44.180Z,101463.88
2023-05-04T22:23:12.988Z,101435.88
2023-05-04T22:25:42.699Z,101471.97
2023-05-04T22:28:11.501Z,101403.81
2023-05-04T22:30:40.726Z,101428.44
2023-05-04T22:33:09.176Z,101475.53
2023-05-04T22:35:37.603Z,101448.91
2023-05-04T22:38:06.152Z,101492.03
2023-05-04T22:40:40.001Z,101493.06
2023-05-04T22:43:12.989Z,101453.41
2023-05-04T22:45:42.016Z,101505.44
2023-05-04T22:48:10.378Z,101511.28
2023-05-04T22:50:39.157Z,101516.81
2023-05-04T22:53:07.824Z,101511.97
2023-05-04T22:55:36.297Z,101512.09
2023-05-04T22:58:04.706Z,101508.94
2023-05-04T23:00:34.508Z,101508.00
2023-05-04T23:03:06.131Z,101509.66
2023-05-04T23:05:34.538Z,101498.13
2023-05-04T23:08:03.820Z,101544.56
2023-05-04T23:10:32.174Z,101527.53
2023-05-04T23:13:00.429Z,101545.38
2023-05-04T23:15:29.014Z,101445.28
2023-05-04T23:17:58.642Z,101543.81
2023-05-04T23:20:26.853Z,101544.31
2023-05-04T23:22:55.149Z,101552.50
2023-05-04T23:25:23.574Z,101553.38
2023-05-04T23:27:51.863Z,101542.03
2023-05-04T23:30:20.365Z,101550.97
2023-05-04T23:32:48.622Z,101531.88
2023-05-04T23:35:18.455Z,101574.03
2023-05-04T23:37:46.592Z,101576.28
2023-05-04T23:40:14.978Z,101531.34
2023-05-04T23:42:44.532Z,101567.06
2023-05-04T23:45:14.396Z,101542.78
2023-05-04T23:47:42.522Z,101575.13
2023-05-04T23:50:12.679Z,101553.06
2023-05-04T23:52:42.179Z,101572.06
2023-05-04T23:55:11.318Z,101559.50
2023-05-04T23:57:46.532Z,101534.22
